This is the latest recevied weather packets stored in our database for station/object F5IOR. If no packets are shown the sender has not sent any weather packets the latest 10 day(s).
| Time | Temp. | Humidity | Pressure | Rain* | Wind** | Luminosity | Snow |
|---|---|---|---|---|---|---|---|
| 1787578654 | 30° C | 33% | 983.9 hPa | 10.67 mm | - | - | - |
| 1787576854 | 28.89° C | 39% | 984.5 hPa | 19.3 mm | - | - | - |
| 1787575054 | 28.33° C | 44% | 984.6 hPa | 19.3 mm | - | - | - |
| 1787573254 | 26.67° C | 54% | 984.9 hPa | 19.3 mm | - | - | - |
| 1787571454 | 26.11° C | 56% | 985.1 hPa | 19.3 mm | - | - | - |
| 1787569654 | 23.89° C | 61% | 985.7 hPa | 19.3 mm | - | - | - |
| 1787567854 | 23.89° C | 64% | 985.8 hPa | 19.3 mm | - | - | - |
| 1787566054 | 21.11° C | 67% | 986.7 hPa | 20.57 mm | - | - | - |
| 1787564254 | 20.56° C | 68% | 987.1 hPa | 20.57 mm | - | - | - |
| 1787563294 | 19.44° C | 70% | 987.5 hPa | 20.57 mm | - | - | - |
| 1787562334 | 18.89° C | 70% | 987.6 hPa | 20.57 mm | - | - | - |
| 1787561374 | 18.33° C | 68% | 987.6 hPa | 20.57 mm | - | - | - |
| 1787560414 | 18.33° C | 68% | 987.6 hPa | 20.57 mm | - | - | - |
| 1787559934 | 17.78° C | 65% | 987.7 hPa | 20.57 mm | - | - | - |
| 1787559454 | 17.78° C | 65% | 987.7 hPa | 20.57 mm | - | - | - |
| 1787558974 | 17.78° C | 65% | 987.7 hPa | 20.57 mm | - | - | - |
| 1787558494 | 17.78° C | 63% | 987.8 hPa | 20.57 mm | - | - | - |
| 1787558254 | 17.78° C | 63% | 987.8 hPa | 20.57 mm | - | - | - |
| 1787558014 | 17.78° C | 60% | 988 hPa | 20.57 mm | - | - | - |
| 1787557774 | 17.78° C | 60% | 988 hPa | 20.57 mm | - | - | - |
| 1787557534 | 17.78° C | 60% | 988 hPa | 20.57 mm | - | - | - |
| 1787557414 | 17.78° C | 60% | 988 hPa | 20.57 mm | - | - | - |
| 1787557294 | 17.78° C | 60% | 988 hPa | 20.57 mm | - | - | - |
| 1787557174 | 17.78° C | 60% | 988 hPa | 20.57 mm | - | - | - |
| 1787557055 | 17.78° C | 60% | 988 hPa | 20.57 mm | - | - | - |
* Rain latest hour (hover to see other rain measurements)
** Current wind speed in m/s (hover to see current wind gust speed)